Richard Lloyd Jones Jr Airport
KRVS : rendu visible

Aérodrome :











RETROUVEZ-NOUS SUR...

 
LOGIN :

S'inscrire | Disclaimer

   EN    FR    IT 

 









Légende :    VFR   VFR Marginal   IFR   IFR Intensif   IFR Très Intensif
Visi : 
Plafond : 
>= 8 km
>= 3000ft
5 à 8 km
1000 à 3000 ft
1500m à 5 km
500 à 1000 ft
800 à 1500m
200 à 500 ft
< 800m
< 200 ft
Symboles :   Orages  Brouillard  Fortes neiges  Fortes précipitations  Vent > 20 kt






- Altitude de l'aérodrome : 638 ft


KRVS - Richard Lloyd Jones Jr

DERNIER METAR :
  • 150653Z AUTO 00000KT 9SM CLR M02/M03 A3042 RMK AO2 SLP309 T10171033 TSNO

METARs EXPIRÉS :
  • 150553Z AUTO 00000KT 7SM CLR M01/M03 A3043 RMK AO2 SLP311 T10111028 10061 21011 401281028 50008 TSNO
  • 150453Z AUTO 00000KT 10SM CLR M01/M02 A3043 RMK AO2 SLP313 T10061022 TSNO

TAF KRVS
Valide du 15 à 06h jusqu'au 16 à 06h UTC


150520Z 1506/1606 17005KT P6SM SCT250



MET'MAP, la Météo Aéronautique d'un coup d'oeil ! - Copyright ORBIFLY Décembre 2007 - Disclaimer

ORBIFLY MET'MAP TEAM :

Programmation & Développement : Alexandra Zaïnal
Conception & Développement : Baudouin d'Aumeries
Co-Programmation & Développement : Marc-Olivier Méhu
Soutien technique & logistique : Manuel Goepfert

Contact : metmap@orbifly.com




SOURCES & CREDITS :

   NOAA       Earth
Advisory